🇳🇱 VeloStatistics

👤 Maros Kovac

NationaliteitSVK
Geboortedatum1977-04-11
Overlijdensdatum -
Lengte / Gewicht180 cm / 70 kg
Profzeges2
Profzeges 20260
Wedstrijddagen408

🚴 Ploegenhistorie

PloegCodeJaar
De Nardi - Pasta Montegrappa NAR 2002
De Nardi - Pasta Montegrappa NAR 2001

📊 Prestatie Matrix

Jaar
GdI
TdF
VaE
MSR
RvV
PR
LBL
LOM
WK
PN
TA
VPV
VaC
TdR
CdD
TdS
GW
AGR
FW
PT
2012 - - - - - - - - DNF - - - - - - - - - - -

🏆 Resultaten (246)

Datum Pos Wedstrijd UCI Ploeg
2013-07-11 1 2013 | Sibiu Cycling Tour, ROU | Rit 0 (11.7) 2.1 -
2013-06-23 2 2013 | N.K. Slowakije, SVK (23.6) NC -
2013-06-21 2 2013 | N.K. Slowakije I.T.T., SVK (21.6) NCT -
2013-06-08 3 2013 | Tour of Slovakia, SVK (8.6) 2.2 -
2013-06-06 3 2013 | Tour of Slovakia, SVK | Rit 3 (6.6) 2.2 -
2013-06-05 9 2013 | Tour of Slovakia, SVK | Rit 2 (5.6) 2.2 -
2013-06-04 3 2013 | Tour of Slovakia, SVK | Rit 0 (4.6) 2.2 -
2013-05-09 7 2013 | Five Rings of Moscow, RUS (9.5) 2.2 -
2013-05-08 6 2013 | Five Rings of Moscow, RUS | Rit 3 (8.5) 2.2 -
2013-05-02 4 2013 | Memorial Oleg Dyachenko, RUS (2.5) 1.2 -
2013-04-21 8 2013 | Beograd - Banja Luka II, BIH (21.4) 1.2 -
2013-04-20 17 2013 | Beograd - Banja Luka I, BIH (20.4) 1.2 -
2013-04-07 4 2013 | Tour du Maroc, MAR | Rit 10 (7.4) 2.2 -
2013-04-07 2 2013 | Tour du Maroc, MAR (7.4) 2.2 -
2013-04-06 9 2013 | Tour du Maroc, MAR | Rit 9 (6.4) 2.2 -
2013-04-02 7 2013 | Tour du Maroc, MAR | Rit 5 (2.4) 2.2 -
2013-03-30 2 2013 | Tour du Maroc, MAR | Rit 2 (30.3) 2.2 -
2012-09-23 DNF 2012 | Wereldkampioenschap (23.9) WC -
2012-09-16 1 2012 | Bohemia Tour, CZE (16.9) 1.2 -
2012-09-09 14 2012 | Okolo Jiznich Cech, CZE (9.9) 2.2 -
2012-09-06 6 2012 | Okolo Jiznich Cech, CZE | Rit 0 (6.9) 2.2 -
2012-07-08 22 2012 | Course de Solidarnosc et des Champions Olympiques, POL (8.7) 2.1 -
2012-07-07 5 2012 | Course de Solidarnosc et des Champions Olympiques, POL | Rit 5 (7.7) 2.1 -
2012-07-06 13 2012 | Course de Solidarnosc et des Champions Olympiques, POL | Rit 4 (6.7) 2.1 -
2012-06-30 1 2012 | Czech Tour, CZE | Rit 3 (30.6) 2.2 -
2012-06-29 6 2012 | Czech Tour, CZE | Rit 2 (29.6) 2.2 -
2012-06-24 9 2012 | N.K. Slowakije, SVK (24.6) NC -
2012-06-21 8 2012 | N.K. Slowakije I.T.T., SVK (21.6) NCT -
2012-06-09 7 2012 | Tour of Slovakia, SVK (9.6) 2.2 -
2012-06-09 9 2012 | Tour of Slovakia, SVK | Rit 5 (9.6) 2.2 -
2012-06-08 2 2012 | Tour of Slovakia, SVK | Rit 4 (8.6) 2.2 -
2012-06-05 3 2012 | Tour of Slovakia, SVK | Rit 1 (5.6) 2.2 -
2012-05-25 7 2012 | EOS Tallinn G.P., EST (25.5) 1.1 -
2012-05-19 8 2012 | Jurmala G.P., LAT (19.5) 1.2 -
2012-04-21 12 2012 | Beograd - Banja Luka I, BIH (21.4) 1.2 -
2011-08-07 2 2011 | Tour de Guadeloupe, FRA | Rit 2 (7.8) 2.2 -
2011-07-08 6 2011 | Czech Tour, CZE | Rit 2 (8.7) 2.2 -
2011-06-29 6 2011 | Course de Solidarnosc et des Champions Olympiques, POL | Rit 1 (29.6) 2.1 -
2011-06-26 5 2011 | N.K. Slowakije, SVK (26.6) NC -
2011-04-07 1 2011 | Les challenges Phosphatiers - Challenge Khouribga, MAR (7.4) 1.2 -
2011-04-03 13 2011 | Tour du Maroc, MAR (3.4) 2.2 -
2011-04-02 8 2011 | Tour du Maroc, MAR | Rit 10 (2.4) 2.2 -
2011-03-28 9 2011 | Tour du Maroc, MAR | Rit 4 (28.3) 2.2 -
2011-03-27 3 2011 | Tour du Maroc, MAR | Rit 3 (27.3) 2.2 -
2010-09-07 3 2010 | Tour of Slovakia, SVK (7.9) 2.2 -
2010-09-07 8 2010 | Tour of Slovakia, SVK | Rit 7 (7.9) 2.2 -
2010-09-06 9 2010 | Tour of Slovakia, SVK | Rit 6 (6.9) 2.2 -
2010-09-04 2 2010 | Tour of Slovakia, SVK | Rit 4 (4.9) 2.2 -
2010-09-03 9 2010 | Tour of Slovakia, SVK | Rit 3 (3.9) 2.2 -
2010-08-31 4 2010 | Tour of Slovakia, SVK | Rit 0 (31.8) 2.2 -